Terminal Aerodrome Forecast
Issued by NWS

Home | Current Version | Previous Version | Graphics & Text | Print | Product List | Glossary On
Versions: 1 2 3 4 5 6 7 8 9 10 11 12 13 14 15 16 17 18 19 20 21 22 23 24 25
000
FTUS43 KPAH 210500 CCA
TAFOWB
TAF COR
KOWB 210529Z 2106/2206 00000KT P6SM SKC
     FM210900 00000KT 3SM BR SKC
      TEMPO 2109/2113 1/4SM FG VV003
     FM211400 02004KT P6SM SCT050=

USA.gov is the U.S. government's official web portal to all federal, state and local government web resources and services.